Time;durP1;ratioP1;P1;durP2;ratioP2;P2;SDS_P1;SDS_P2;PMS_P1;PMS_P2;Temp;Humidity;BMP_temperature;BMP_pressure;BME280_temperature;BME280_humidity;BME280_pressure;Samples;Min_cycle;Max_cycle;Signal;HPM_P1;HPM_P2
2021/10/15 00:01:42;;;;;;;28.50;14.90;;;5.00;99.90;;;3.80;96.71;97975.19;5031671;28;20073;-71
2021/10/15 00:04:09;;;;;;;21.05;11.88;;;4.90;99.90;;;3.77;96.46;97974.34;5041966;28;20036;-71
2021/10/15 00:06:35;;;;;;;25.55;14.48;;;4.90;99.90;;;3.78;96.13;97963.19;5037832;28;20124;-71
2021/10/15 00:09:02;;;;;;;27.33;14.05;;;4.90;99.90;;;3.70;96.76;97965.00;5037612;28;20049;-71
2021/10/15 00:11:29;;;;;;;25.52;12.88;;;4.90;99.90;;;3.70;96.93;97961.59;5032452;28;20045;-71
2021/10/15 00:13:56;;;;;;;24.52;13.10;;;4.80;99.90;;;3.79;95.93;97956.38;5034437;28;20049;-71
2021/10/15 00:16:23;;;;;;;28.35;14.55;;;4.80;99.90;;;3.68;96.30;97955.63;5039975;28;20037;-71
2021/10/15 00:18:51;;;;;;;27.17;15.05;;;4.70;99.90;;;3.57;96.60;97963.41;5041283;28;20451;-70
2021/10/15 00:21:18;;;;;;;23.17;12.68;;;4.70;99.90;;;3.54;96.38;97954.03;5034753;28;20143;-71
2021/10/15 00:23:45;;;;;;;27.75;14.65;;;4.70;99.90;;;3.52;96.82;97954.91;5031851;28;20141;-71
2021/10/15 00:26:12;;;;;;;25.92;13.38;;;4.70;99.90;;;3.43;97.21;97952.41;5033034;28;20049;-72
2021/10/15 00:28:39;;;;;;;27.25;14.73;;;4.60;99.90;;;3.39;97.50;97945.59;5036034;28;20088;-72
2021/10/15 00:31:06;;;;;;;29.52;15.55;;;4.70;99.90;;;3.34;97.90;97946.47;5038355;28;20085;-72
2021/10/15 00:33:32;;;;;;;33.70;16.08;;;4.70;99.90;;;3.31;97.96;97948.22;5039221;28;20069;-72
2021/10/15 00:36:00;;;;;;;27.83;14.77;;;4.70;99.90;;;3.29;98.03;97937.97;5034752;28;20073;-72
2021/10/15 00:38:27;;;;;;;23.60;13.30;;;4.60;99.90;;;3.34;97.69;97940.50;5028883;28;20073;-72
2021/10/15 00:40:54;;;;;;;25.30;13.20;;;4.60;99.90;;;3.35;97.72;97950.75;5035028;28;20111;-72
2021/10/15 00:43:21;;;;;;;25.27;14.10;;;4.60;99.90;;;3.45;97.10;97943.00;5033332;28;20453;-72
2021/10/15 00:45:48;;;;;;;21.10;12.23;;;4.60;99.90;;;3.43;97.00;97939.59;5032610;28;20128;-72
2021/10/15 00:48:15;;;;;;;18.27;11.25;;;4.60;99.90;;;3.40;96.92;97939.59;5042945;28;20492;-73
2021/10/15 00:50:45;;;;;;;26.52;14.13;;;4.50;99.90;;;3.27;97.67;97932.00;5039754;28;20106;-72
2021/10/15 00:53:12;;;;;;;21.48;12.10;;;4.50;99.90;;;3.31;97.33;97931.13;5046279;28;20120;-72
2021/10/15 00:55:39;;;;;;;26.65;14.30;;;4.60;99.90;;;3.24;97.20;97923.47;5041012;28;20091;-72
2021/10/15 00:58:06;;;;;;;26.27;15.00;;;4.50;99.90;;;3.17;97.10;97921.81;5043002;28;20129;-72
2021/10/15 01:00:33;;;;;;;22.02;12.27;;;4.50;99.90;;;3.09;97.32;97919.31;5041218;28;21134;-71
2021/10/15 01:03:02;;;;;;;19.83;11.35;;;4.50;99.90;;;3.17;97.05;97919.25;5034378;28;20092;-71
2021/10/15 01:05:29;;;;;;;17.70;10.23;;;4.50;99.90;;;3.12;97.02;97916.72;5039150;28;20049;-71
2021/10/15 01:07:57;;;;;;;19.20;12.65;;;4.40;99.90;;;3.12;96.99;97916.72;5046020;28;20084;-71
2021/10/15 01:10:26;;;;;;;21.20;11.77;;;4.30;99.90;;;3.09;97.06;97909.06;5036439;28;20049;-71
2021/10/15 01:12:55;;;;;;;19.17;11.82;;;4.40;99.90;;;3.13;96.80;97906.44;5043461;28;20114;-72
2021/10/15 01:15:22;;;;;;;19.75;11.13;;;4.40;99.90;;;3.21;96.46;97905.53;5039752;28;20136;-71
2021/10/15 01:17:49;;;;;;;20.08;11.60;;;4.30;99.90;;;3.31;95.83;97902.91;5046188;28;20340;-71
2021/10/15 01:20:16;;;;;;;18.90;10.73;;;4.30;99.90;;;3.31;95.25;97894.34;5041639;28;20073;-71
2021/10/15 01:22:44;;;;;;;13.73;9.27;;;4.30;99.90;;;3.33;94.97;97900.28;5039747;28;20421;-71
2021/10/15 01:25:11;;;;;;;17.83;10.98;;;4.30;99.90;;;3.29;94.86;97896.91;5034809;28;20057;-71
2021/10/15 01:27:38;;;;;;;18.60;10.60;;;4.30;99.90;;;3.33;95.16;97887.47;5042168;28;20077;-71
2021/10/15 01:30:06;;;;;;;16.75;9.82;;;4.30;99.90;;;3.23;95.28;97889.25;5043192;28;20128;-71
2021/10/15 01:32:33;;;;;;;18.00;10.43;;;4.30;99.90;;;3.24;94.86;97884.97;5045856;28;20069;-71
2021/10/15 01:35:00;;;;;;;18.27;11.27;;;4.30;99.90;;;3.33;94.46;97885.78;5038793;28;20582;-71
2021/10/15 01:37:27;;;;;;;18.85;9.88;;;4.40;99.90;;;3.31;94.59;97879.81;5037085;28;20037;-71
2021/10/15 01:39:54;;;;;;;16.73;9.70;;;4.30;99.90;;;3.28;94.85;97877.25;5043262;28;20141;-71
2021/10/15 01:45:07;;;;;;;17.35;10.65;;;4.30;99.90;;;3.24;94.54;97874.72;5043416;28;20126;-71
2021/10/15 01:47:34;;;;;;;16.27;10.40;;;4.30;99.90;;;3.27;94.44;97860.16;5043614;28;20538;-71
2021/10/15 01:50:01;;;;;;;15.77;10.18;;;4.30;99.90;;;3.18;94.29;97867.09;5045153;28;20148;-71
2021/10/15 01:52:28;;;;;;;21.40;10.73;;;4.30;99.90;;;2.98;95.01;97857.00;5043142;28;20442;-71
2021/10/15 01:54:55;;;;;;;17.42;10.75;;;4.30;99.90;;;2.89;95.50;97857.91;5056771;28;20558;-71
2021/10/15 01:57:22;;;;;;;16.85;10.20;;;4.30;99.90;;;2.72;96.32;97856.31;5050737;28;20053;-71
2021/10/15 01:59:49;;;;;;;16.77;9.52;;;4.20;99.90;;;2.81;95.83;97857.13;5036848;28;20120;-70
2021/10/15 02:02:16;;;;;;;13.30;8.57;;;4.10;99.90;;;2.90;95.61;97864.75;5047838;28;20094;-71
2021/10/15 02:04:43;;;;;;;14.70;8.10;;;4.10;99.90;;;2.88;95.66;97857.06;5050131;28;20045;-71
2021/10/15 02:07:10;;;;;;;11.98;6.35;;;4.10;99.90;;;3.16;94.57;97859.41;5052199;28;20136;-72
2021/10/15 02:09:37;;;;;;;13.75;8.90;;;4.10;99.90;;;3.06;94.64;97850.94;5042425;28;20130;-71
2021/10/15 02:12:05;;;;;;;15.60;8.90;;;4.10;99.90;;;3.10;93.83;97846.63;5051808;28;20124;-71
2021/10/15 02:14:32;;;;;;;20.02;9.02;;;4.10;99.90;;;3.00;94.62;97847.56;5039254;28;20127;-71
2021/10/15 02:16:59;;;;;;;14.10;8.45;;;4.10;99.90;;;3.14;93.70;97853.44;5049829;28;20493;-71
2021/10/15 02:19:26;;;;;;;9.93;5.75;;;4.10;99.90;;;3.17;93.36;97839.72;5046338;28;20084;-71
2021/10/15 02:21:53;;;;;;;11.48;6.82;;;4.10;99.90;;;3.14;93.02;97843.16;5042591;28;20140;-70
2021/10/15 02:24:20;;;;;;;10.68;6.35;;;4.10;99.90;;;3.19;92.28;97843.13;5050903;28;20205;-71
2021/10/15 02:26:47;;;;;;;12.15;7.13;;;4.10;99.90;;;3.11;93.26;97840.66;5049339;28;20114;-71
2021/10/15 02:29:14;;;;;;;13.95;7.13;;;4.10;99.90;;;3.09;93.58;97842.38;5043630;28;20053;-71
2021/10/15 02:31:42;;;;;;;14.57;8.77;;;4.10;99.90;;;2.96;93.75;97836.47;5047263;28;20076;-71
2021/10/15 02:34:10;;;;;;;16.02;9.07;;;4.10;99.90;;;2.87;93.90;97832.31;5049294;28;20049;-71
2021/10/15 02:36:37;;;;;;;13.55;7.78;;;4.10;99.90;;;3.00;93.66;97832.19;5050043;28;20378;-71
2021/10/15 02:39:05;;;;;;;13.23;8.43;;;4.10;99.90;;;2.90;93.41;97834.84;5047711;28;20083;-71
2021/10/15 02:41:32;;;;;;;13.25;7.75;;;4.10;99.90;;;2.88;93.53;97821.16;5048082;28;20517;-71
2021/10/15 02:43:59;;;;;;;13.77;8.23;;;4.00;99.90;;;2.77;94.13;97822.13;5045391;28;20088;-72
2021/10/15 02:46:26;;;;;;;13.05;7.60;;;4.00;99.90;;;2.66;94.22;97830.72;5051319;28;20460;-71
2021/10/15 02:48:53;;;;;;;12.77;7.05;;;4.00;99.90;;;2.75;93.97;97827.25;5044525;28;20056;-71
2021/10/15 02:51:19;;;;;;;12.25;7.75;;;3.90;99.90;;;2.72;93.67;97823.00;5044910;28;20084;-71
2021/10/15 02:53:46;;;;;;;13.68;8.27;;;3.90;99.90;;;2.78;93.84;97818.69;5046289;28;20124;-72
2021/10/15 02:56:13;;;;;;;12.18;6.70;;;3.90;99.90;;;2.78;93.55;97824.66;5041185;28;20129;-71
2021/10/15 02:58:40;;;;;;;13.77;7.57;;;3.90;99.90;;;2.72;93.77;97814.47;5044736;28;20069;-71
2021/10/15 03:01:07;;;;;;;15.27;9.10;;;3.80;99.90;;;2.55;94.71;97812.00;5047789;28;20145;-71
2021/10/15 03:03:34;;;;;;;27.17;11.63;;;3.80;99.90;;;2.51;95.02;97816.31;5044285;28;20082;-71
2021/10/15 03:06:01;;;;;;;23.55;11.90;;;3.80;99.90;;;2.58;94.76;97817.13;5038152;28;20042;-71
2021/10/15 03:08:29;;;;;;;20.40;9.27;;;3.70;99.90;;;2.52;95.21;97814.59;5048130;28;20130;-71
2021/10/15 03:10:56;;;;;;;31.52;14.07;;;3.70;99.90;;;2.56;95.60;97811.16;5048453;28;20045;-71
2021/10/15 03:13:23;;;;;;;30.73;12.05;;;3.70;99.90;;;2.41;96.00;97814.66;5041158;28;20140;-71
2021/10/15 03:15:50;;;;;;;18.25;8.13;;;3.70;99.90;;;2.38;96.27;97814.69;5044308;28;20076;-71
2021/10/15 03:18:18;;;;;;;13.57;8.90;;;3.60;99.90;;;2.19;96.66;97811.41;5047868;28;20041;-71
2021/10/15 03:20:45;;;;;;;15.50;9.43;;;3.60;99.90;;;2.16;96.62;97813.97;5040063;28;20072;-70
2021/10/15 03:23:12;;;;;;;20.02;10.30;;;3.60;99.90;;;2.12;97.03;97807.13;5043042;28;20076;-72
2021/10/15 03:25:39;;;;;;;16.08;9.40;;;3.60;99.90;;;2.11;97.37;97810.56;5048952;28;20056;-71
2021/10/15 03:28:07;;;;;;;13.25;8.38;;;3.50;99.90;;;2.22;96.55;97806.25;5037353;28;20140;-71
2021/10/15 03:30:37;;;;;;;12.02;6.88;;;3.40;99.90;;;2.23;96.74;97804.53;5049292;28;20128;-71
2021/10/15 03:33:05;;;;;;;16.60;7.72;;;;;;;2.27;96.49;97798.53;5054448;28;20044;-71
2021/10/15 03:35:32;;;;;;;13.60;7.72;;;3.40;99.90;;;2.20;96.34;97812.25;5049168;28;20136;-71
2021/10/15 03:37:59;;;;;;;15.25;8.52;;;3.40;99.90;;;2.07;96.97;97801.19;5048836;28;20132;-71
2021/10/15 03:40:26;;;;;;;19.63;10.13;;;3.40;99.90;;;2.15;96.58;97812.28;5030315;28;20081;-71
2021/10/15 03:42:53;;;;;;;17.45;8.38;;;3.40;99.90;;;2.15;96.54;97806.31;5042290;28;20044;-71
2021/10/15 03:45:20;;;;;;;17.38;9.65;;;3.40;99.90;;;2.20;96.77;97799.44;5049353;28;20077;-72
2021/10/15 03:47:47;;;;;;;13.70;8.77;;;3.40;99.90;;;2.27;96.02;97799.38;5037907;28;20467;-71
2021/10/15 03:50:15;;;;;;;19.25;10.70;;;3.40;99.90;;;2.25;96.23;97801.09;5035278;28;20152;-71
2021/10/15 03:52:42;;;;;;;22.70;13.40;;;3.40;99.90;;;2.30;96.08;97799.38;5042274;28;20076;-71
2021/10/15 03:55:12;;;;;;;25.00;14.95;;;3.40;99.90;;;2.31;96.36;97802.78;5044252;28;20481;-71
2021/10/15 03:57:40;;;;;;;22.35;12.27;;;3.50;99.90;;;2.42;95.61;97801.00;5048337;28;20087;-71
2021/10/15 04:00:11;;;;;;;25.08;13.80;;;3.50;99.90;;;2.35;95.60;97796.78;5042577;28;20044;-71
2021/10/15 04:02:39;;;;;;;16.73;10.63;;;3.50;99.90;;;2.38;95.42;97796.75;5046537;28;20045;-71
2021/10/15 04:05:08;;;;;;;20.88;13.63;;;3.50;99.90;;;2.20;95.82;97797.72;5046575;28;20044;-72
2021/10/15 04:07:36;;;;;;;23.20;13.05;;;3.50;99.90;;;2.01;95.91;97798.69;5048841;28;20053;-71
2021/10/15 04:10:06;;;;;;;16.95;10.57;;;3.40;99.90;;;1.96;96.43;97802.97;5045423;28;20351;-71
2021/10/15 04:12:33;;;;;;;18.08;11.95;;;3.40;99.90;;;1.86;96.68;97804.72;5036286;28;20565;-71
2021/10/15 04:15:02;;;;;;;18.80;11.48;;;3.40;99.90;;;1.79;97.13;97796.22;5042461;28;20131;-71
2021/10/15 04:17:28;;;;;;;18.15;11.52;;;3.30;99.90;;;1.74;97.39;97800.50;5043042;28;20168;-71
2021/10/15 04:19:55;;;;;;;20.27;11.40;;;3.30;99.90;;;1.67;97.88;97799.69;5043849;28;20071;-72
2021/10/15 04:22:25;;;;;;;19.48;11.60;;;3.30;99.90;;;1.71;97.87;97789.41;5046060;28;20087;-71
2021/10/15 04:24:53;;;;;;;24.35;14.77;;;3.30;99.90;;;1.68;98.19;97788.56;5040286;28;20075;-71
2021/10/15 04:27:20;;;;;;;22.80;12.65;;;3.30;99.90;;;1.70;98.04;97786.03;5034981;28;20425;-71
2021/10/15 04:29:47;;;;;;;23.90;12.77;;;3.20;99.90;;;1.60;98.10;97781.81;5039217;28;20076;-71
2021/10/15 04:32:14;;;;;;;25.15;12.63;;;3.20;99.90;;;1.63;98.59;97781.78;5046660;28;20488;-71
2021/10/15 04:34:41;;;;;;;22.23;12.57;;;3.20;99.90;;;1.62;98.20;97787.75;5049241;28;20047;-71
2021/10/15 04:37:08;;;;;;;18.50;9.90;;;3.10;99.90;;;1.63;97.93;97776.66;5044744;28;20469;-71
2021/10/15 04:39:35;;;;;;;18.92;10.95;;;3.10;99.90;;;1.61;97.89;97783.50;5041387;28;20127;-71
2021/10/15 04:42:02;;;;;;;16.30;10.57;;;3.10;99.90;;;1.56;98.10;97772.44;5044475;28;20136;-71
2021/10/15 04:44:29;;;;;;;16.90;10.30;;;3.10;99.90;;;1.57;97.95;97774.97;5042773;28;20076;-71
2021/10/15 04:46:56;;;;;;;15.50;9.93;;;3.10;99.90;;;1.48;97.80;97776.72;5044920;28;20076;-71
2021/10/15 04:49:23;;;;;;;15.10;8.82;;;3.10;99.90;;;1.79;97.11;97769.78;5036631;28;20430;-71
2021/10/15 04:51:50;;;;;;;15.35;10.10;;;3.00;99.90;;;1.68;97.03;97777.50;5043850;28;20041;-71
2021/10/15 04:54:17;;;;;;;16.80;8.80;;;3.00;99.90;;;1.78;97.40;97775.75;5043043;28;20419;-70
2021/10/15 04:56:44;;;;;;;21.02;11.52;;;3.00;99.90;;;1.83;97.66;97774.03;5047529;28;20124;-71
2021/10/15 04:59:11;;;;;;;15.25;9.65;;;3.00;99.90;;;2.03;97.75;97767.09;5035054;28;20077;-71
2021/10/15 05:01:38;;;;;;;12.68;8.52;;;3.10;99.90;;;2.48;97.56;97761.66;5036870;28;20045;-71
2021/10/15 05:04:05;;;;;;;17.85;10.88;;;3.20;99.90;;;2.77;98.18;97764.00;5045323;28;20128;-71
2021/10/15 05:06:32;;;;;;;21.13;11.50;;;3.50;99.90;;;2.90;97.91;97751.94;5045976;28;20044;-71
2021/10/15 05:09:13;;;;;;;18.52;10.93;;;3.70;99.90;;;2.99;97.99;97754.41;5038630;28;20107;-71
2021/10/15 05:11:45;;;;;;;19.98;11.25;;;3.80;99.90;;;3.24;98.83;97754.16;5037344;28;20129;-71
2021/10/15 05:14:13;;;;;;;18.90;12.90;;;4.10;99.90;;;3.43;99.28;97753.09;5044993;28;20045;-71
2021/10/15 05:16:45;;;;;;;23.55;13.00;;;4.20;99.90;;;3.55;99.39;97752.09;5041541;28;20045;-71
2021/10/15 05:19:13;;;;;;;23.80;13.27;;;4.30;99.90;;;3.59;99.65;97755.50;5039012;28;20121;-71
2021/10/15 05:21:39;;;;;;;20.80;13.40;;;4.50;99.90;;;3.60;98.99;97746.91;5045086;28;20096;-71
2021/10/15 05:24:07;;;;;;;24.63;14.82;;;4.50;99.90;;;3.67;98.35;97740.81;5041502;28;20287;-71
2021/10/15 05:26:34;;;;;;;22.40;12.93;;;4.60;99.90;;;3.73;98.36;97749.31;5047157;28;20044;-71
2021/10/15 05:29:01;;;;;;;25.08;14.55;;;4.60;99.90;;;3.91;99.45;97743.09;5039523;28;20132;-71
2021/10/15 05:31:28;;;;;;;21.02;13.05;;;4.70;99.90;;;3.96;98.55;97738.72;5045248;28;20041;-71
2021/10/15 05:33:55;;;;;;;18.17;11.15;;;4.80;99.90;;;3.87;98.34;97735.44;5041790;28;20363;-71
2021/10/15 05:36:22;;;;;;;22.02;12.95;;;4.80;99.90;;;3.86;98.39;97737.16;5062245;28;20129;-71
2021/10/15 05:38:53;;;;;;;21.65;11.40;;;4.90;99.90;;;3.88;97.51;97732.88;5051349;28;20227;-71
2021/10/15 05:41:20;;;;;;;29.40;15.30;;;4.90;99.90;;;3.61;96.16;97735.78;5037344;28;20041;-71
2021/10/15 05:43:47;;;;;;;35.25;19.58;;;4.80;99.90;;;3.38;95.08;97733.50;5047600;28;20179;-71
2021/10/15 05:46:14;;;;;;;26.92;15.25;;;4.70;99.90;;;3.65;95.96;97733.16;5048595;28;20132;-71
2021/10/15 05:48:41;;;;;;;25.70;14.38;;;4.60;99.90;;;3.14;95.02;97733.72;5049903;28;20245;-71
2021/10/15 05:51:09;;;;;;;18.80;11.85;;;4.50;99.90;;;3.40;96.17;97736.88;5054370;28;20045;-72
2021/10/15 05:53:36;;;;;;;16.48;10.90;;;4.40;99.90;;;3.53;95.70;97738.44;5053311;28;20533;-71
2021/10/15 05:58:53;;;;;;;17.95;11.77;;;4.60;99.90;;;3.74;96.24;97733.06;5048550;28;20052;-71
2021/10/15 06:01:24;;;;;;;22.65;12.63;;;4.70;99.90;;;3.88;97.39;97735.44;5039947;28;20049;-71
2021/10/15 06:05:03;;;;;;;17.80;11.70;;;4.80;99.90;;;4.03;96.91;97726.66;5026157;28;20062;-71
2021/10/15 06:14:51;;;;;;;25.42;15.25;;;5.30;99.90;;;4.48;97.77;97726.84;5048538;28;20057;-71
2021/10/15 06:17:18;;;;;;;27.73;14.35;;;5.40;99.90;;;4.48;97.35;97732.00;5044992;28;20107;-71
2021/10/15 06:22:27;;;;;;;28.15;15.50;;;5.50;99.90;;;4.62;97.82;97736.91;5039701;28;20054;-71
2021/10/15 06:24:55;;;;;;;26.88;15.52;;;5.50;99.90;;;4.56;97.13;97752.41;5048732;28;20498;-71
2021/10/15 06:27:25;;;;;;;24.90;14.38;;;5.40;99.90;;;4.51;97.50;97747.34;5042662;28;20053;-71
2021/10/15 06:29:52;;;;;;;22.13;13.82;;;5.40;99.90;;;4.57;97.04;97742.13;5039132;28;20159;-72
2021/10/15 06:32:22;;;;;;;25.25;14.73;;;5.40;99.90;;;4.55;97.05;97753.31;5037633;28;20059;-71
2021/10/15 06:34:50;;;;;;;31.83;17.48;;;5.40;99.90;;;4.46;97.41;97756.84;5045363;28;20124;-71
2021/10/15 06:37:17;;;;;;;30.63;16.58;;;5.40;99.90;;;4.47;97.52;97752.56;5042132;28;20526;-71
2021/10/15 06:39:49;;;;;;;44.25;22.17;;;5.40;99.90;;;4.39;98.12;97763.81;5043404;28;20127;-71
2021/10/15 06:42:16;;;;;;;112.00;53.80;;;5.40;99.90;;;4.22;99.41;97772.63;5048207;28;20185;-71
2021/10/15 06:44:43;;;;;;;48.67;26.40;;;5.50;99.90;;;4.25;100.00;97780.31;5048524;28;20470;-71
2021/10/15 06:47:10;;;;;;;37.67;22.00;;;5.50;99.90;;;4.20;100.00;97782.94;5048364;28;20114;-71
2021/10/15 06:49:37;;;;;;;43.70;24.48;;;5.60;99.90;;;4.22;100.00;97791.50;5042872;28;20072;-71
2021/10/15 06:52:05;;;;;;;45.17;20.77;;;5.60;99.90;;;4.24;100.00;97783.75;5044590;28;20049;-72
2021/10/15 06:54:32;;;;;;;44.47;22.90;;;5.60;99.90;;;4.20;100.00;97793.22;5049166;28;20120;-71
2021/10/15 06:56:59;;;;;;;33.65;18.77;;;5.70;99.90;;;4.38;100.00;97784.41;5045630;28;20197;-71
2021/10/15 06:59:26;;;;;;;25.63;14.30;;;5.60;99.90;;;4.40;100.00;97780.06;5047454;28;20072;-71
2021/10/15 07:01:53;;;;;;;24.35;14.50;;;5.60;99.90;;;4.49;100.00;97776.53;5043216;28;20151;-71
2021/10/15 07:04:21;;;;;;;85.50;29.98;;;5.60;99.90;;;4.26;100.00;97784.56;5045682;28;20095;-71
2021/10/15 07:06:48;;;;;;;100.65;30.25;;;5.60;99.90;;;4.31;100.00;97773.38;5047554;28;20135;-71
2021/10/15 07:09:15;;;;;;;73.43;18.55;;;5.70;99.90;;;4.45;100.00;97772.28;5046791;28;20091;-71
2021/10/15 07:11:42;;;;;;;105.03;23.15;;;5.70;99.90;;;4.30;100.00;97770.81;5038317;28;20524;-71
2021/10/15 07:14:08;;;;;;;54.00;19.65;;;5.70;99.90;;;4.29;100.00;97772.53;5046427;28;20168;-71
2021/10/15 07:16:35;;;;;;;57.03;26.08;;;5.70;99.90;;;4.29;100.00;97766.53;5046286;28;20045;-71
2021/10/15 07:19:02;;;;;;;33.45;16.63;;;5.80;99.90;;;4.25;100.00;97772.63;5041157;28;20041;-71
2021/10/15 07:21:29;;;;;;;32.65;15.95;;;6.00;99.90;;;4.33;100.00;97774.22;5049866;28;20072;-71
2021/10/15 07:23:56;;;;;;;21.92;13.95;;;6.10;99.90;;;4.53;100.00;97768.75;5044513;28;20087;-71
2021/10/15 07:26:23;;;;;;;27.63;14.38;;;6.10;99.90;;;4.54;100.00;97765.31;5049792;28;20141;-71
2021/10/15 07:28:50;;;;;;;28.95;16.08;;;6.20;99.90;;;4.59;99.98;97767.81;5047447;28;20435;-71
2021/10/15 07:31:19;;;;;;;22.55;12.55;;;6.30;99.90;;;5.07;99.05;97769.59;5041223;28;20553;-71
2021/10/15 07:33:48;;;;;;;23.38;12.38;;;6.50;99.90;;;5.42;94.89;97774.09;5040070;28;20068;-71
2021/10/15 07:36:16;;;;;;;17.65;11.32;;;6.90;99.90;;;5.51;94.18;97773.06;5049370;28;20777;-71
2021/10/15 07:38:43;;;;;;;19.25;11.02;;;7.30;99.90;;;6.25;92.17;97769.88;5042645;28;20111;-71
2021/10/15 07:41:11;;;;;;;18.88;10.18;;;7.80;99.90;;;6.16;90.81;97772.63;5046830;28;20048;-72
2021/10/15 07:43:38;;;;;;;15.85;9.90;;;8.20;99.90;;;6.42;90.16;97774.63;5045938;28;20504;-72
2021/10/15 07:46:05;;;;;;;13.50;9.60;;;8.60;99.90;;;6.87;88.98;97769.28;5040868;28;20076;-71
2021/10/15 07:48:32;;;;;;;14.10;9.43;;;8.80;99.90;;;6.92;88.37;97772.59;5048648;28;20124;-71
2021/10/15 07:50:59;;;;;;;14.65;9.70;;;9.00;99.90;;;6.69;88.18;97775.72;5047206;28;20045;-71
2021/10/15 07:53:26;;;;;;;13.77;9.40;;;9.00;99.90;;;7.08;86.17;97763.56;5047016;28;20563;-72
2021/10/15 07:55:53;;;;;;;14.48;10.50;;;8.90;99.90;;;6.90;87.74;97774.34;5042015;28;20133;-71
2021/10/15 07:58:21;;;;;;;11.50;8.27;;;8.80;99.90;;;6.86;88.00;97789.03;5035155;28;20048;-71
2021/10/15 08:00:48;;;;;;;10.35;7.70;;;8.60;99.90;;;7.03;87.16;97786.06;5047733;28;20144;-72
2021/10/15 08:03:15;;;;;;;12.50;8.50;;;8.30;99.90;;;7.16;86.00;97785.75;5047216;28;20110;-72
2021/10/15 08:05:42;;;;;;;15.43;10.10;;;8.20;99.90;;;6.94;85.71;97790.63;5044104;28;20053;-71
2021/10/15 08:08:10;;;;;;;16.30;9.15;;;8.40;99.90;;;7.07;85.70;97797.16;5047939;28;20087;-72
2021/10/15 08:10:37;;;;;;;14.07;10.10;;;8.80;99.90;;;7.19;84.49;97783.94;5046396;28;20076;-72
2021/10/15 08:13:04;;;;;;;14.35;9.60;;;8.50;99.90;;;7.86;83.40;97777.84;5048924;28;20080;-72
2021/10/15 08:15:31;;;;;;;19.23;12.98;;;8.30;99.90;;;7.19;85.17;97780.53;5048298;28;20417;-71
2021/10/15 08:17:58;;;;;;;19.20;11.10;;;8.80;99.90;;;7.45;84.57;97788.41;5047396;28;20057;-72
2021/10/15 08:20:26;;;;;;;18.55;11.45;;;9.30;99.90;;;7.33;84.79;97793.91;5039922;28;20051;-72
2021/10/15 08:22:54;;;;;;;15.95;11.65;;;9.70;99.90;;;7.67;84.13;97787.84;5044538;28;20203;-71
2021/10/15 08:25:29;;;;;;;12.60;9.93;;;9.80;99.90;;;8.20;81.78;97797.53;5040282;28;20077;-72
2021/10/15 08:27:58;;;;;;;15.60;11.65;;;10.00;99.90;;;7.79;83.96;97792.66;5040392;28;20141;-73
2021/10/15 08:30:27;;;;;;;16.08;11.88;;;10.20;99.90;;;7.90;84.66;97794.97;5045716;28;20072;-72
2021/10/15 08:32:55;;;;;;;16.63;12.48;;;10.30;99.90;;;8.17;83.27;97801.91;5047021;28;20080;-72
2021/10/15 08:35:23;;;;;;;20.48;13.10;;;10.20;99.90;;;7.90;83.38;97813.88;5041625;28;20132;-72
2021/10/15 08:37:52;;;;;;;19.08;12.43;;;10.00;99.90;;;7.77;83.04;97807.38;5043235;28;20081;-71
2021/10/15 08:40:19;;;;;;;17.75;12.68;;;9.60;99.90;;;7.41;85.16;97806.63;5042612;28;20116;-72
2021/10/15 08:42:53;;;;;;;20.17;14.57;;;9.30;99.90;;;7.53;86.43;97798.56;5050392;28;20084;-71
2021/10/15 08:45:26;;;;;;;18.15;13.20;;;9.20;99.90;;;7.90;85.86;97797.53;5045933;28;20077;-72
2021/10/15 08:47:54;;;;;;;17.45;12.35;;;9.20;99.90;;;7.82;86.17;97781.41;5044890;28;20049;-72
2021/10/15 08:50:39;;;;;;;18.08;12.25;;;9.50;99.90;;;7.81;84.49;97788.31;5040826;28;20045;-72
2021/10/15 08:53:07;;;;;;;18.85;12.30;;;9.70;99.90;;;8.16;85.15;97781.25;5048344;28;20045;-71
2021/10/15 08:55:34;;;;;;;18.38;11.13;;;9.90;99.90;;;9.11;81.85;97780.06;5044418;28;20056;-72
2021/10/15 08:58:02;;;;;;;17.00;12.02;;;10.00;99.90;;;8.92;82.91;97785.00;5050254;28;20080;-72
2021/10/15 09:00:36;;;;;;;19.10;11.98;;;10.20;99.90;;;8.08;83.85;97791.00;5044928;28;20066;-72
2021/10/15 09:03:21;;;;;;;16.90;11.32;;;10.30;99.90;;;8.13;83.18;97781.38;5035770;28;20053;-71
2021/10/15 09:06:03;;;;;;;19.33;11.60;;;10.00;99.90;;;8.27;82.97;97792.13;5041538;28;20447;-72
2021/10/15 09:08:45;;;;;;;16.73;10.35;;;9.80;99.90;;;8.33;82.62;97788.53;5042402;28;20068;-71
2021/10/15 09:11:36;;;;;;;19.33;12.07;;;9.70;99.90;;;8.34;82.09;97797.97;5034074;28;20156;-71
2021/10/15 09:14:04;;;;;;;19.33;11.32;;;9.70;99.90;;;7.94;83.69;97794.00;5036826;28;20137;-71
2021/10/15 09:17:08;;;;;;;20.02;12.30;;;9.80;99.90;;;8.09;83.81;97793.53;5049040;28;20072;-71
2021/10/15 09:19:42;;;;;;;17.55;10.93;;;9.70;99.90;;;7.82;83.31;97800.31;5046020;28;20127;-71
2021/10/15 09:22:21;;;;;;;16.60;9.93;;;9.70;99.90;;;8.04;82.45;97803.16;5041501;28;20098;-72
2021/10/15 09:24:53;;;;;;;17.38;10.48;;;9.70;99.90;;;7.91;82.93;97801.81;5043458;28;20507;-71
2021/10/15 09:27:44;;;;;;;18.98;11.85;;;9.80;99.90;;;8.22;83.05;97806.94;5051236;28;20099;-72
2021/10/15 09:30:18;;;;;;;19.80;11.73;;;9.90;99.90;;;8.16;82.40;97817.47;5041367;28;20126;-71
2021/10/15 09:32:55;;;;;;;20.50;12.15;;;9.90;99.90;;;8.26;82.54;97813.72;5047114;28;20134;-71
2021/10/15 09:35:31;;;;;;;18.98;12.80;;;9.80;99.90;;;7.96;84.39;97815.47;5048830;28;20141;-72
2021/10/15 09:38:01;;;;;;;19.40;12.13;;;9.80;99.90;;;8.02;83.67;97811.84;5049435;28;20072;-71
2021/10/15 09:40:36;;;;;;;18.88;11.00;;;9.80;99.90;;;8.15;83.79;97818.38;5051642;28;20040;-72
2021/10/15 09:43:09;;;;;;;17.60;11.95;;;9.80;99.90;;;8.13;84.63;97822.72;5049078;28;20210;-72
2021/10/15 09:45:40;;;;;;;18.42;12.35;;;9.80;99.90;;;8.03;83.14;97831.63;5040086;28;20099;-71
2021/10/15 09:48:31;;;;;;;19.13;11.30;;;9.90;99.90;;;8.44;82.81;97827.91;5034186;28;20132;-71
2021/10/15 09:51:22;;;;;;;18.92;12.13;;;9.90;99.90;;;8.27;82.43;97830.94;5042293;28;20068;-72
2021/10/15 09:54:11;;;;;;;19.77;10.68;;;10.10;99.90;;;8.38;82.54;97835.78;5047646;28;20049;-72
2021/10/15 09:56:49;;;;;;;18.23;12.52;;;10.10;99.90;;;8.35;83.72;97822.97;5047049;28;20057;-71
2021/10/15 09:59:16;;;;;;;19.83;12.82;;;10.10;99.90;;;8.78;81.99;97817.34;5029488;28;20077;-72
2021/10/15 10:01:43;;;;;;;18.52;11.98;;;10.10;99.90;;;8.55;82.29;97823.25;5047843;28;20128;-72
2021/10/15 10:04:12;;;;;;;19.20;12.02;;;10.20;99.90;;;8.81;82.93;97823.31;5046082;28;20072;-71
2021/10/15 10:06:39;;;;;;;18.45;11.75;;;10.60;99.90;;;9.31;81.50;97818.25;5046526;28;20081;-71
2021/10/15 10:09:09;;;;;;;17.85;11.32;;;10.90;99.90;;;9.65;79.53;97812.75;5042633;28;20084;-71
2021/10/15 10:11:36;;;;;;;17.27;11.07;;;11.20;99.90;;;9.49;78.89;97807.25;5044891;28;20057;-72
2021/10/15 10:14:20;;;;;;;16.27;10.27;;;11.30;99.90;;;9.81;77.59;97803.53;5044641;28;20045;-71
2021/10/15 10:16:51;;;;;;;16.52;9.73;;;11.40;99.90;;;9.68;76.73;97810.03;5044302;28;20079;-71
2021/10/15 10:19:21;;;;;;;17.35;11.40;;;11.20;99.90;;;9.42;78.19;97803.19;5042081;28;20056;-71
2021/10/15 10:21:48;;;;;;;15.05;10.10;;;11.20;99.90;;;9.63;78.06;97812.78;5040942;28;20113;-71
2021/10/15 10:24:25;;;;;;;18.77;10.70;;;11.30;99.90;;;9.41;78.05;97809.25;5044003;28;20041;-71
2021/10/15 10:26:57;;;;;;;20.02;11.57;;;11.30;99.90;;;9.70;78.37;97803.06;5039824;28;20056;-71
2021/10/15 10:29:26;;;;;;;22.25;12.05;;;11.20;99.90;;;9.57;77.55;97817.34;5050083;28;20448;-71
2021/10/15 10:32:17;;;;;;;16.17;10.27;;;11.20;99.90;;;9.64;78.03;97805.84;5050645;28;20076;-72
2021/10/15 10:34:44;;;;;;;18.63;10.80;;;11.40;99.90;;;9.79;79.16;97801.91;5048015;28;20563;-71
2021/10/15 10:37:15;;;;;;;15.68;11.07;;;11.60;99.90;;;10.05;78.06;97799.19;5045904;28;20128;-71
2021/10/15 10:40:09;;;;;;;17.38;11.05;;;11.50;99.90;;;9.87;79.13;97788.63;5044566;28;20382;-71
2021/10/15 10:43:03;;;;;;;15.93;10.77;;;11.70;99.90;;;10.11;79.05;97792.94;5048773;28;20080;-72
2021/10/15 10:45:30;;;;;;;17.40;10.40;;;11.80;99.90;;;10.58;77.67;97789.44;5044684;28;20406;-72